Kystfisk — LG3440 — position and weather

sailwx.info

Track history (hours):
 
Tides and Currents Weather Stations Pressure Air Temp Water Temp Dewpoint Dewpoint Depression Visibility Wind Speed Wind Dir Waves Ship Positions

Kystfisk

Last reported at 2017-Sep-30 01:08 UTC. Time now 2017-Nov-24 12:42 UTC.
Position N 66°10' E 012°34'.
Warning: this ship's position is 55 days out of date.

Length 12 m.

Type: Fishing. MMSI: 258307000.

Date/timePositionNaut miles runAvg speedWind from/ knotsBaromVisibWave heightAir tempDewpointWater temp
2017-Sep-30 01:08N 66°10' E 012°34'0 0.0
2017-Sep-29 22:23N 66°10' E 012°34'0 0.0
2017-Sep-29 21:20N 66°10' E 012°34'0 0.0
2017-Sep-29 20:08N 66°10' E 012°34'0 0.0
2017-Sep-29 19:32N 66°10' E 012°34'0 0.0
2017-Sep-29 18:14N 66°10' E 012°34'0 0.0
2017-Sep-29 17:44N 66°10' E 012°34'0 0.0
2017-Sep-29 15:02N 66°10' E 012°34'0 0.1
2017-Sep-29 14:51N 66°10' E 012°34'0 0.0
2017-Sep-29 14:00N 66°10' E 012°34'0 0.0
2017-Sep-29 13:30N 66°10' E 012°34'0 0.0
2017-Sep-29 13:00N 66°10' E 012°34'0 0.4
2017-Sep-29 12:19N 66°10' E 012°33'2 5.9
2017-Sep-29 12:00N 66°09' E 012°29'3 6.6
2017-Sep-29 11:29N 66°11' E 012°22'4 8.1
2017-Sep-29 11:00N 66°11' E 012°12'3 6.3
2017-Sep-29 10:30N 66°12' E 012°04'1 1.6
2017-Sep-29 09:58N 66°12' E 012°06'1 2.5
2017-Sep-29 09:29N 66°11' E 012°09'4 8.9
2017-Sep-29 09:00N 66°12' E 012°20'4 7.4
2017-Sep-29 08:30N 66°09' E 012°26'3 3.9
2017-Sep-29 07:41N 66°10' E 012°34'0 0.2
2017-Sep-29 07:08N 66°10' E 012°33'0 0.0
2017-Sep-29 06:47N 66°10' E 012°33'0 0.0
2017-Sep-29 05:44N 66°10' E 012°33'0 0.0
2017-Sep-29 05:29N 66°10' E 012°33'0 0.0
2017-Sep-29 04:47N 66°10' E 012°33'0 0.0
2017-Sep-29 04:05N 66°10' E 012°33'0 0.0
2017-Sep-29 03:56N 66°10' E 012°33'0 0.0
2017-Sep-29 03:17N 66°10' E 012°33'0 0.0
2017-Sep-29 02:59N 66°10' E 012°33'0 0.0
2017-Sep-28 21:47N 66°10' E 012°33'0 0.0
2017-Sep-28 20:14N 66°10' E 012°33'0 0.0
2017-Sep-28 19:50N 66°10' E 012°33'0 0.0
2017-Sep-28 19:08N 66°10' E 012°33'0 0.0
2017-Sep-28 18:44N 66°10' E 012°33'0 0.0
2017-Sep-28 17:59N 66°10' E 012°33'0 0.0
2017-Sep-28 17:26N 66°10' E 012°33'0 0.0
2017-Sep-28 16:44N 66°10' E 012°33'0 0.0
2017-Sep-28 16:26N 66°10' E 012°33'0 0.1
2017-Sep-28 15:21N 66°10' E 012°34'3 9.1
2017-Sep-28 15:00N 66°09' E 012°26'3 6.8
2017-Sep-28 14:30N 66°11' E 012°19'5 9.2
2017-Sep-28 13:58N 66°10' E 012°07'2 4.2
2017-Sep-28 13:30N 66°08' E 012°05'2 4.2
2017-Sep-28 13:00N 66°06' E 012°08'3 5.6
2017-Sep-28 12:29N 66°06' E 012°15'4 8.9
2017-Sep-28 12:00N 66°08' E 012°25'4 6.3
2017-Sep-28 11:22N 66°10' E 012°33'0 0.3
2017-Sep-28 10:40N 66°10' E 012°34'0 0.0
2017-Sep-28 09:48N 66°10' E 012°34'0 0.0
2017-Sep-28 09:10N 66°10' E 012°34'0 0.4
2017-Sep-28 08:56N 66°10' E 012°34'0 0.1
2017-Sep-28 07:23N 66°10' E 012°33'0 0.0
2017-Sep-28 06:35N 66°10' E 012°33'0 0.0
2017-Sep-28 06:17N 66°10' E 012°33'0 0.0
2017-Sep-28 05:59N 66°10' E 012°33'0 0.0
2017-Sep-28 05:08N 66°10' E 012°33'0 0.0
2017-Sep-28 04:59N 66°10' E 012°33'0 0.0
2017-Sep-28 03:59N 66°10' E 012°33'0 0.0
2017-Sep-28 03:23N 66°10' E 012°33'0 0.0
2017-Sep-28 01:50N 66°10' E 012°33'0 0.0
2017-Sep-28 01:17N 66°10' E 012°33'0 0.0
2017-Sep-27 22:59N 66°10' E 012°33'0 0.0
2017-Sep-27 22:17N 66°10' E 012°33'0 0.0
2017-Sep-27 20:59N 66°10' E 012°33'0 0.0
2017-Sep-27 20:29N 66°10' E 012°33'0 0.0
2017-Sep-27 19:59N 66°10' E 012°33'0 0.0
2017-Sep-27 19:29N 66°10' E 012°33'0 0.0
2017-Sep-27 18:47N 66°10' E 012°33'0 0.0
2017-Sep-27 18:23N 66°10' E 012°33'0 0.0
2017-Sep-27 17:35N 66°10' E 012°33'0 0.0
2017-Sep-27 17:26N 66°10' E 012°33'0 0.0
2017-Sep-27 16:59N 66°10' E 012°33'0 0.0
2017-Sep-27 16:29N 66°10' E 012°33'0 0.0
2017-Sep-27 15:53N 66°10' E 012°33'0 0.0
2017-Sep-27 15:26N 66°10' E 012°33'0 0.0
2017-Sep-27 14:47N 66°10' E 012°33'0 0.0
2017-Sep-27 14:29N 66°10' E 012°33'0 0.0
2017-Sep-27 13:59N 66°10' E 012°33'0 0.0
2017-Sep-27 13:26N 66°10' E 012°33'0 0.0
2017-Sep-27 12:59N 66°10' E 012°33'0 0.0
2017-Sep-27 12:20N 66°10' E 012°33'0 0.0
2017-Sep-27 11:11N 66°10' E 012°33'0 0.0
2017-Sep-27 10:20N 66°10' E 012°33'0 0.0
2017-Sep-27 07:32N 66°10' E 012°33'0 0.0
2017-Sep-27 07:23N 66°10' E 012°33'0 0.0
2017-Sep-27 06:50N 66°10' E 012°33'0 0.0
2017-Sep-27 05:53N 66°10' E 012°33'0 0.0
2017-Sep-27 05:23N 66°10' E 012°33'0 0.0
2017-Sep-27 04:56N 66°10' E 012°33'0 0.0
2017-Sep-27 04:17N 66°10' E 012°33'0 0.0
2017-Sep-27 03:53N 66°10' E 012°33'0 0.0
2017-Sep-27 03:20N 66°10' E 012°33'0 0.0
2017-Sep-27 02:53N 66°10' E 012°33'0 0.0
2017-Sep-27 02:29N 66°10' E 012°33'0 0.0
2017-Sep-27 01:59N 66°10' E 012°33'0 0.0
2017-Sep-27 01:29N 66°10' E 012°33'0 0.0
2017-Sep-27 00:59N 66°10' E 012°33'0 0.0
2017-Sep-27 00:26N 66°10' E 012°33'0 0.0
2017-Sep-26 23:59N 66°10' E 012°33'0 0.0
2017-Sep-26 23:08N 66°10' E 012°33'0 0.0
2017-Sep-26 22:59N 66°10' E 012°33'0 0.0
2017-Sep-26 22:23N 66°10' E 012°33'0 0.0
2017-Sep-26 21:14N 66°10' E 012°33'0 0.0
2017-Sep-26 20:50N 66°10' E 012°33'0 0.0
2017-Sep-26 20:26N 66°10' E 012°33'0 0.0
2017-Sep-26 19:59N 66°10' E 012°33'0 0.0
2017-Sep-26 19:23N 66°10' E 012°33'0 0.0
2017-Sep-26 18:59N 66°10' E 012°33'0 0.0
2017-Sep-26 18:26N 66°10' E 012°33'0 0.0
2017-Sep-26 17:59N 66°10' E 012°33'0 0.0
2017-Sep-26 17:29N 66°10' E 012°33'0 0.0
2017-Sep-26 16:38N 66°10' E 012°33'0 0.0
2017-Sep-26 16:11N 66°10' E 012°33'0 0.0
2017-Sep-26 15:56N 66°10' E 012°33'0 0.0
2017-Sep-26 15:20N 66°10' E 012°33'0 0.0
2017-Sep-26 14:59N 66°10' E 012°33'0 0.0
2017-Sep-26 14:26N 66°10' E 012°33'0 0.0
2017-Sep-26 13:47N 66°10' E 012°33'0 0.0
2017-Sep-26 13:26N 66°10' E 012°33'0 0.0
2017-Sep-26 12:17N 66°10' E 012°33'0 0.0
2017-Sep-26 06:35N 66°10' E 012°33'0 0.0
2017-Sep-26 06:26N 66°10' E 012°33'0 0.0
2017-Sep-26 04:47N 66°10' E 012°33'0 0.0
2017-Sep-26 04:23N 66°10' E 012°33'0 0.0
2017-Sep-26 03:50N 66°10' E 012°33'0 0.0
2017-Sep-26 03:26N 66°10' E 012°33'0 0.0
2017-Sep-26 02:53N 66°10' E 012°33'0 0.0
2017-Sep-26 02:26N 66°10' E 012°33'0 0.0
2017-Sep-26 01:50N 66°10' E 012°33'0 0.0
2017-Sep-26 01:23N 66°10' E 012°33'0 0.0
2017-Sep-26 00:23N 66°10' E 012°33'0 0.0
2017-Sep-25 23:53N 66°10' E 012°33'0 0.0
2017-Sep-25 23:05N 66°10' E 012°33'0 0.0
2017-Sep-25 22:41N 66°10' E 012°33'0 0.0
2017-Sep-25 22:26N 66°10' E 012°33'0 0.0
2017-Sep-25 21:35N 66°10' E 012°33'0 0.0
2017-Sep-25 20:35N 66°10' E 012°33'0 0.0
2017-Sep-25 19:50N 66°10' E 012°33'0 0.0
2017-Sep-25 18:20N 66°10' E 012°33'0 0.0
2017-Sep-25 17:41N 66°10' E 012°33'0 0.0
2017-Sep-25 17:29N 66°10' E 012°33'0 0.0
2017-Sep-25 16:53N 66°10' E 012°33'0 0.0
2017-Sep-25 16:26N 66°10' E 012°33'0 0.0
2017-Sep-25 15:56N 66°10' E 012°33'0 0.0
2017-Sep-25 15:11N 66°10' E 012°33'0 0.0
2017-Sep-25 13:56N 66°10' E 012°33'0 0.0
2017-Sep-25 13:20N 66°10' E 012°33'0 0.0
2017-Sep-25 12:41N 66°10' E 012°33'0 0.0
2017-Sep-25 12:23N 66°10' E 012°33'0 0.0
2017-Sep-25 11:59N 66°10' E 012°33'0 0.0
2017-Sep-25 11:29N 66°10' E 012°33'0 0.0
2017-Sep-25 06:11N 66°10' E 012°33'0 0.0
2017-Sep-25 05:53N 66°10' E 012°33'0 0.0
2017-Sep-25 05:23N 66°10' E 012°33'0 0.0
2017-Sep-25 04:53N 66°10' E 012°33'0 0.0
2017-Sep-25 04:17N 66°10' E 012°33'0 0.0
2017-Sep-25 03:20N 66°10' E 012°33'0 0.0
2017-Sep-25 02:56N 66°10' E 012°33'0 0.0
2017-Sep-25 01:56N 66°10' E 012°33'0 0.0
2017-Sep-25 00:56N 66°10' E 012°33'0 0.0
2017-Sep-25 00:17N 66°10' E 012°33'0 0.0
2017-Sep-24 22:38N 66°10' E 012°33'0 0.0
2017-Sep-24 19:26N 66°10' E 012°33'0 0.0
2017-Sep-24 18:11N 66°10' E 012°33'0 0.0
2017-Sep-24 17:53N 66°10' E 012°33'0 0.0
2017-Sep-24 16:53N 66°10' E 012°33'0 0.0
2017-Sep-24 16:29N 66°10' E 012°33'0 0.0
2017-Sep-24 15:47N 66°10' E 012°33'0 0.0
2017-Sep-24 15:29N 66°10' E 012°33'0 0.0
2017-Sep-24 12:11N 66°10' E 012°33'0 0.0
2017-Sep-24 11:02N 66°10' E 012°33'0 0.0
2017-Sep-24 04:29N 66°10' E 012°33'0 0.0
2017-Sep-24 03:56N 66°10' E 012°33'0 0.0
2017-Sep-24 03:14N 66°10' E 012°33'0 0.0
2017-Sep-24 02:50N 66°10' E 012°33'0 0.0
2017-Sep-24 02:02N 66°10' E 012°33'0 0.0
2017-Sep-24 01:05N 66°10' E 012°33'0 0.0
2017-Sep-24 00:53N 66°10' E 012°33'0 0.0
2017-Sep-23 23:47N 66°10' E 012°33'0 0.0
2017-Sep-23 20:53N 66°10' E 012°33'0 0.0
2017-Sep-23 20:23N 66°10' E 012°33'0 0.0
2017-Sep-22 01:51N 66°10' E 012°33'0 0.0
2017-Sep-22 00:42N 66°10' E 012°33'0 0.0
2017-Sep-22 00:30N 66°10' E 012°33'0 0.0
2017-Sep-22 00:00N 66°10' E 012°33'0 0.0
2017-Sep-21 23:30N 66°10' E 012°33'0 0.0
2017-Sep-21 22:15N 66°10' E 012°33'0 0.0
2017-Sep-21 21:48N 66°10' E 012°33'0 0.0
2017-Sep-21 21:30N 66°10' E 012°33'0 0.0
2017-Sep-21 20:48N 66°10' E 012°33'0 0.0
2017-Sep-21 14:30N 66°10' E 012°33'0 0.0
2017-Sep-21 13:51N 66°10' E 012°33'0 0.0
2017-Sep-21 13:30N 66°10' E 012°33'0 0.0
2017-Sep-21 13:00N 66°10' E 012°33'0 0.0
2017-Sep-21 12:30N 66°10' E 012°33'0 0.0
2017-Sep-21 12:00N 66°10' E 012°33'0 0.0
2017-Sep-21 11:18N 66°10' E 012°33'0 0.0
2017-Sep-21 10:48N 66°10' E 012°33'0 0.0
2017-Sep-21 09:51N 66°10' E 012°33'0 0.0
2017-Sep-21 09:30N 66°10' E 012°33'0 0.0
2017-Sep-21 01:27N 66°10' E 012°33'0 0.0
2017-Sep-21 00:06N 66°10' E 012°33'0 0.0
2017-Sep-21 00:00N 66°10' E 012°33'0 0.0
2017-Sep-20 23:30N 66°10' E 012°33'0 0.0
2017-Sep-20 23:00N 66°10' E 012°33'0 0.0
2017-Sep-20 22:30N 66°10' E 012°33'0 0.0
2017-Sep-20 13:24N 66°10' E 012°33'0 0.0
2017-Sep-20 11:36N 66°10' E 012°33'0 0.0
2017-Sep-20 11:12N 66°10' E 012°33'0 0.0
2017-Sep-20 11:00N 66°10' E 012°33'0 0.0
2017-Sep-20 10:30N 66°10' E 012°33'0 0.0
2017-Sep-20 01:12N 66°10' E 012°33'  
Track history (hours):
 
Tides and Currents Weather Stations Pressure Air Temp Water Temp Dewpoint Dewpoint Depression Visibility Wind Speed Wind Dir Waves Ship Positions

Kystfisk

Last reported at 2017-Sep-30 01:08 UTC. Time now 2017-Nov-24 12:42 UTC.
Position N 66°10' E 012°34'.
Warning: this ship's position is 55 days out of date.

Length 12 m.

Type: Fishing. MMSI: 258307000.

Date/timePositionNaut miles runAvg speedWind from/ knotsBaromVisibWave heightAir tempDewpointWater temp
2017-Sep-30 01:08N 66°10' E 012°34'0 0.0
2017-Sep-29 22:23N 66°10' E 012°34'0 0.0
2017-Sep-29 21:20N 66°10' E 012°34'0 0.0
2017-Sep-29 20:08N 66°10' E 012°34'0 0.0
2017-Sep-29 19:32N 66°10' E 012°34'0 0.0
2017-Sep-29 18:14N 66°10' E 012°34'0 0.0
2017-Sep-29 17:44N 66°10' E 012°34'0 0.0
2017-Sep-29 15:02N 66°10' E 012°34'0 0.1
2017-Sep-29 14:51N 66°10' E 012°34'0 0.0
2017-Sep-29 14:00N 66°10' E 012°34'0 0.0
2017-Sep-29 13:30N 66°10' E 012°34'0 0.0
2017-Sep-29 13:00N 66°10' E 012°34'0 0.4
2017-Sep-29 12:19N 66°10' E 012°33'2 5.9
2017-Sep-29 12:00N 66°09' E 012°29'3 6.6
2017-Sep-29 11:29N 66°11' E 012°22'4 8.1
2017-Sep-29 11:00N 66°11' E 012°12'3 6.3
2017-Sep-29 10:30N 66°12' E 012°04'1 1.6
2017-Sep-29 09:58N 66°12' E 012°06'1 2.5
2017-Sep-29 09:29N 66°11' E 012°09'4 8.9
2017-Sep-29 09:00N 66°12' E 012°20'4 7.4
2017-Sep-29 08:30N 66°09' E 012°26'3 3.9
2017-Sep-29 07:41N 66°10' E 012°34'0 0.2
2017-Sep-29 07:08N 66°10' E 012°33'0 0.0
2017-Sep-29 06:47N 66°10' E 012°33'0 0.0
2017-Sep-29 05:44N 66°10' E 012°33'0 0.0
2017-Sep-29 05:29N 66°10' E 012°33'0 0.0
2017-Sep-29 04:47N 66°10' E 012°33'0 0.0
2017-Sep-29 04:05N 66°10' E 012°33'0 0.0
2017-Sep-29 03:56N 66°10' E 012°33'0 0.0
2017-Sep-29 03:17N 66°10' E 012°33'0 0.0
2017-Sep-29 02:59N 66°10' E 012°33'0 0.0
2017-Sep-28 21:47N 66°10' E 012°33'0 0.0
2017-Sep-28 20:14N 66°10' E 012°33'0 0.0
2017-Sep-28 19:50N 66°10' E 012°33'0 0.0
2017-Sep-28 19:08N 66°10' E 012°33'0 0.0
2017-Sep-28 18:44N 66°10' E 012°33'0 0.0
2017-Sep-28 17:59N 66°10' E 012°33'0 0.0
2017-Sep-28 17:26N 66°10' E 012°33'0 0.0
2017-Sep-28 16:44N 66°10' E 012°33'0 0.0
2017-Sep-28 16:26N 66°10' E 012°33'0 0.1
2017-Sep-28 15:21N 66°10' E 012°34'3 9.1
2017-Sep-28 15:00N 66°09' E 012°26'3 6.8
2017-Sep-28 14:30N 66°11' E 012°19'5 9.2
2017-Sep-28 13:58N 66°10' E 012°07'2 4.2
2017-Sep-28 13:30N 66°08' E 012°05'2 4.2
2017-Sep-28 13:00N 66°06' E 012°08'3 5.6
2017-Sep-28 12:29N 66°06' E 012°15'4 8.9
2017-Sep-28 12:00N 66°08' E 012°25'4 6.3
2017-Sep-28 11:22N 66°10' E 012°33'0 0.3
2017-Sep-28 10:40N 66°10' E 012°34'0 0.0
2017-Sep-28 09:48N 66°10' E 012°34'0 0.0
2017-Sep-28 09:10N 66°10' E 012°34'0 0.4
2017-Sep-28 08:56N 66°10' E 012°34'0 0.1
2017-Sep-28 07:23N 66°10' E 012°33'0 0.0
2017-Sep-28 06:35N 66°10' E 012°33'0 0.0
2017-Sep-28 06:17N 66°10' E 012°33'0 0.0
2017-Sep-28 05:59N 66°10' E 012°33'0 0.0
2017-Sep-28 05:08N 66°10' E 012°33'0 0.0
2017-Sep-28 04:59N 66°10' E 012°33'0 0.0
2017-Sep-28 03:59N 66°10' E 012°33'0 0.0
2017-Sep-28 03:23N 66°10' E 012°33'0 0.0
2017-Sep-28 01:50N 66°10' E 012°33'0 0.0
2017-Sep-28 01:17N 66°10' E 012°33'0 0.0
2017-Sep-27 22:59N 66°10' E 012°33'0 0.0
2017-Sep-27 22:17N 66°10' E 012°33'0 0.0
2017-Sep-27 20:59N 66°10' E 012°33'0 0.0
2017-Sep-27 20:29N 66°10' E 012°33'0 0.0
2017-Sep-27 19:59N 66°10' E 012°33'0 0.0
2017-Sep-27 19:29N 66°10' E 012°33'0 0.0
2017-Sep-27 18:47N 66°10' E 012°33'0 0.0
2017-Sep-27 18:23N 66°10' E 012°33'0 0.0
2017-Sep-27 17:35N 66°10' E 012°33'0 0.0
2017-Sep-27 17:26N 66°10' E 012°33'0 0.0
2017-Sep-27 16:59N 66°10' E 012°33'0 0.0
2017-Sep-27 16:29N 66°10' E 012°33'0 0.0
2017-Sep-27 15:53N 66°10' E 012°33'0 0.0
2017-Sep-27 15:26N 66°10' E 012°33'0 0.0
2017-Sep-27 14:47N 66°10' E 012°33'0 0.0
2017-Sep-27 14:29N 66°10' E 012°33'0 0.0
2017-Sep-27 13:59N 66°10' E 012°33'0 0.0
2017-Sep-27 13:26N 66°10' E 012°33'0 0.0
2017-Sep-27 12:59N 66°10' E 012°33'0 0.0
2017-Sep-27 12:20N 66°10' E 012°33'0 0.0
2017-Sep-27 11:11N 66°10' E 012°33'0 0.0
2017-Sep-27 10:20N 66°10' E 012°33'0 0.0
2017-Sep-27 07:32N 66°10' E 012°33'0 0.0
2017-Sep-27 07:23N 66°10' E 012°33'0 0.0
2017-Sep-27 06:50N 66°10' E 012°33'0 0.0
2017-Sep-27 05:53N 66°10' E 012°33'0 0.0
2017-Sep-27 05:23N 66°10' E 012°33'0 0.0
2017-Sep-27 04:56N 66°10' E 012°33'0 0.0
2017-Sep-27 04:17N 66°10' E 012°33'0 0.0
2017-Sep-27 03:53N 66°10' E 012°33'0 0.0
2017-Sep-27 03:20N 66°10' E 012°33'0 0.0
2017-Sep-27 02:53N 66°10' E 012°33'0 0.0
2017-Sep-27 02:29N 66°10' E 012°33'0 0.0
2017-Sep-27 01:59N 66°10' E 012°33'0 0.0
2017-Sep-27 01:29N 66°10' E 012°33'0 0.0
2017-Sep-27 00:59N 66°10' E 012°33'0 0.0
2017-Sep-27 00:26N 66°10' E 012°33'0 0.0
2017-Sep-26 23:59N 66°10' E 012°33'0 0.0
2017-Sep-26 23:08N 66°10' E 012°33'0 0.0
2017-Sep-26 22:59N 66°10' E 012°33'0 0.0
2017-Sep-26 22:23N 66°10' E 012°33'0 0.0
2017-Sep-26 21:14N 66°10' E 012°33'0 0.0
2017-Sep-26 20:50N 66°10' E 012°33'0 0.0
2017-Sep-26 20:26N 66°10' E 012°33'0 0.0
2017-Sep-26 19:59N 66°10' E 012°33'0 0.0
2017-Sep-26 19:23N 66°10' E 012°33'0 0.0
2017-Sep-26 18:59N 66°10' E 012°33'0 0.0
2017-Sep-26 18:26N 66°10' E 012°33'0 0.0
2017-Sep-26 17:59N 66°10' E 012°33'0 0.0
2017-Sep-26 17:29N 66°10' E 012°33'0 0.0
2017-Sep-26 16:38N 66°10' E 012°33'0 0.0
2017-Sep-26 16:11N 66°10' E 012°33'0 0.0
2017-Sep-26 15:56N 66°10' E 012°33'0 0.0
2017-Sep-26 15:20N 66°10' E 012°33'0 0.0
2017-Sep-26 14:59N 66°10' E 012°33'0 0.0
2017-Sep-26 14:26N 66°10' E 012°33'0 0.0
2017-Sep-26 13:47N 66°10' E 012°33'0 0.0
2017-Sep-26 13:26N 66°10' E 012°33'0 0.0
2017-Sep-26 12:17N 66°10' E 012°33'0 0.0
2017-Sep-26 06:35N 66°10' E 012°33'0 0.0
2017-Sep-26 06:26N 66°10' E 012°33'0 0.0
2017-Sep-26 04:47N 66°10' E 012°33'0 0.0
2017-Sep-26 04:23N 66°10' E 012°33'0 0.0
2017-Sep-26 03:50N 66°10' E 012°33'0 0.0
2017-Sep-26 03:26N 66°10' E 012°33'0 0.0
2017-Sep-26 02:53N 66°10' E 012°33'0 0.0
2017-Sep-26 02:26N 66°10' E 012°33'0 0.0
2017-Sep-26 01:50N 66°10' E 012°33'0 0.0
2017-Sep-26 01:23N 66°10' E 012°33'0 0.0
2017-Sep-26 00:23N 66°10' E 012°33'0 0.0
2017-Sep-25 23:53N 66°10' E 012°33'0 0.0
2017-Sep-25 23:05N 66°10' E 012°33'0 0.0
2017-Sep-25 22:41N 66°10' E 012°33'0 0.0
2017-Sep-25 22:26N 66°10' E 012°33'0 0.0
2017-Sep-25 21:35N 66°10' E 012°33'0 0.0
2017-Sep-25 20:35N 66°10' E 012°33'0 0.0
2017-Sep-25 19:50N 66°10' E 012°33'0 0.0
2017-Sep-25 18:20N 66°10' E 012°33'0 0.0
2017-Sep-25 17:41N 66°10' E 012°33'0 0.0
2017-Sep-25 17:29N 66°10' E 012°33'0 0.0
2017-Sep-25 16:53N 66°10' E 012°33'0 0.0
2017-Sep-25 16:26N 66°10' E 012°33'0 0.0
2017-Sep-25 15:56N 66°10' E 012°33'0 0.0
2017-Sep-25 15:11N 66°10' E 012°33'0 0.0
2017-Sep-25 13:56N 66°10' E 012°33'0 0.0
2017-Sep-25 13:20N 66°10' E 012°33'0 0.0
2017-Sep-25 12:41N 66°10' E 012°33'0 0.0
2017-Sep-25 12:23N 66°10' E 012°33'0 0.0
2017-Sep-25 11:59N 66°10' E 012°33'0 0.0
2017-Sep-25 11:29N 66°10' E 012°33'0 0.0
2017-Sep-25 06:11N 66°10' E 012°33'0 0.0
2017-Sep-25 05:53N 66°10' E 012°33'0 0.0
2017-Sep-25 05:23N 66°10' E 012°33'0 0.0
2017-Sep-25 04:53N 66°10' E 012°33'0 0.0
2017-Sep-25 04:17N 66°10' E 012°33'0 0.0
2017-Sep-25 03:20N 66°10' E 012°33'0 0.0
2017-Sep-25 02:56N 66°10' E 012°33'0 0.0
2017-Sep-25 01:56N 66°10' E 012°33'0 0.0
2017-Sep-25 00:56N 66°10' E 012°33'0 0.0
2017-Sep-25 00:17N 66°10' E 012°33'0 0.0
2017-Sep-24 22:38N 66°10' E 012°33'0 0.0
2017-Sep-24 19:26N 66°10' E 012°33'0 0.0
2017-Sep-24 18:11N 66°10' E 012°33'0 0.0
2017-Sep-24 17:53N 66°10' E 012°33'0 0.0
2017-Sep-24 16:53N 66°10' E 012°33'0 0.0
2017-Sep-24 16:29N 66°10' E 012°33'0 0.0
2017-Sep-24 15:47N 66°10' E 012°33'0 0.0
2017-Sep-24 15:29N 66°10' E 012°33'0 0.0
2017-Sep-24 12:11N 66°10' E 012°33'0 0.0
2017-Sep-24 11:02N 66°10' E 012°33'0 0.0
2017-Sep-24 04:29N 66°10' E 012°33'0 0.0
2017-Sep-24 03:56N 66°10' E 012°33'0 0.0
2017-Sep-24 03:14N 66°10' E 012°33'0 0.0
2017-Sep-24 02:50N 66°10' E 012°33'0 0.0
2017-Sep-24 02:02N 66°10' E 012°33'0 0.0
2017-Sep-24 01:05N 66°10' E 012°33'0 0.0
2017-Sep-24 00:53N 66°10' E 012°33'0 0.0
2017-Sep-23 23:47N 66°10' E 012°33'0 0.0
2017-Sep-23 20:53N 66°10' E 012°33'0 0.0
2017-Sep-23 20:23N 66°10' E 012°33'0 0.0
2017-Sep-22 01:51N 66°10' E 012°33'0 0.0
2017-Sep-22 00:42N 66°10' E 012°33'0 0.0
2017-Sep-22 00:30N 66°10' E 012°33'0 0.0
2017-Sep-22 00:00N 66°10' E 012°33'0 0.0
2017-Sep-21 23:30N 66°10' E 012°33'0 0.0
2017-Sep-21 22:15N 66°10' E 012°33'0 0.0
2017-Sep-21 21:48N 66°10' E 012°33'0 0.0
2017-Sep-21 21:30N 66°10' E 012°33'0 0.0
2017-Sep-21 20:48N 66°10' E 012°33'0 0.0
2017-Sep-21 14:30N 66°10' E 012°33'0 0.0
2017-Sep-21 13:51N 66°10' E 012°33'0 0.0
2017-Sep-21 13:30N 66°10' E 012°33'0 0.0
2017-Sep-21 13:00N 66°10' E 012°33'0 0.0
2017-Sep-21 12:30N 66°10' E 012°33'0 0.0
2017-Sep-21 12:00N 66°10' E 012°33'0 0.0
2017-Sep-21 11:18N 66°10' E 012°33'0 0.0
2017-Sep-21 10:48N 66°10' E 012°33'0 0.0
2017-Sep-21 09:51N 66°10' E 012°33'0 0.0
2017-Sep-21 09:30N 66°10' E 012°33'0 0.0
2017-Sep-21 01:27N 66°10' E 012°33'0 0.0
2017-Sep-21 00:06N 66°10' E 012°33'0 0.0
2017-Sep-21 00:00N 66°10' E 012°33'0 0.0
2017-Sep-20 23:30N 66°10' E 012°33'0 0.0
2017-Sep-20 23:00N 66°10' E 012°33'0 0.0
2017-Sep-20 22:30N 66°10' E 012°33'0 0.0
2017-Sep-20 13:24N 66°10' E 012°33'0 0.0
2017-Sep-20 11:36N 66°10' E 012°33'0 0.0
2017-Sep-20 11:12N 66°10' E 012°33'0 0.0
2017-Sep-20 11:00N 66°10' E 012°33'0 0.0
2017-Sep-20 10:30N 66°10' E 012°33'0 0.0
2017-Sep-20 01:12N 66°10' E 012°33'  

Dump ship's entire track history